Camerino, Italy

7:32 PM CEST on July 28, 2016 (GMT +0200)
San Severino Marche | | Change Station
Active Advisory: >

Elev 1834 ft 43.24 °N, 13.15 °E | Updated 34 seconds ago

Scattered Clouds
Scattered Clouds
69.3 °F
Feels Like 69.3 °F
N
0.8
Wind Variable Wind from NE
Gusts 1.5 mph

Today
High -- | Low -- °F
--% Chance of Precip.
Yesterday
High -- | Low -- °F
Precip. -- in
Pressure 29.92 in
Visibility 6.2 miles
Clouds Scattered Clouds 5000 ft
Dew Point 64 °F
Humidity 84%
Rainfall in
Snow Depth Not available.
5:54 AM 8:33 PM
Waning Crescent, 30% visible
METAR LIRZ 281650Z 24011KT 9999 SCT050 28/17 Q1013
Pressure 29.92 in
Visibility 6.2 miles
Clouds Scattered Clouds 5000 ft
Dew Point 64 °F
Humidity 84%
Rainfall in
Snow Depth Not available.
5:54 AM 8:33 PM
Waning Crescent, 30% visible
METAR LIRZ 281650Z 24011KT 9999 SCT050 28/17 Q1013

10-Day Weather Forecast

×

Almanac

Astronomy

Jul. 28, 2016 Rise Set
Actual Time
Civil Twilight
Nautical Twilight
Astronomical Twilight
Moon
Length of Visible Light
Length of Day
Tomorrow will be .
, % of the Moon is Illuminated

Today's Extremes

Country Highs Country Lows

Community

WunderPhotos

Upload Photos

1,928,163 photos uploaded!

WunderBlog® & News

Nearby

Air Quality

  Air Quality AQ Index Pollutant
Not available.

Snow Depth

Station Depth Elevation

Earthquake Activity

City Distance Mag. Time & Date
Minimum magnitude displayed is 2.5.

Coastal Water Temperatures

Place Temperature

Stations

Nearby Weather Stations

Station Location Temp. Windchill Dew Point Humidity Wind Precip. Elev Updated Type